Time;durP1;ratioP1;P1;durP2;ratioP2;P2;SDS_P1;SDS_P2;PMS_P1;PMS_P2;Temp;Humidity;BMP_temperature;BMP_pressure;BME280_temperature;BME280_humidity;BME280_pressure;Samples;Min_cycle;Max_cycle;Signal;HPM_P1;HPM_P2
2021/01/06 00:00:18;;;;;;;32.50;14.10;;;;;;;;;;5099219;28;20485;-74
2021/01/06 00:02:44;;;;;;;28.50;13.40;;;;;;;;;;5095665;28;20432;-74
2021/01/06 00:05:19;;;;;;;40.13;16.23;;;;;;;;;;5094047;28;20468;-74
2021/01/06 00:07:46;;;;;;;37.57;14.97;;;;;;;;;;5095471;28;20458;-74
2021/01/06 00:10:18;;;;;;;27.60;13.87;;;;;;;;;;5108095;28;20434;-74
2021/01/06 00:12:44;;;;;;;33.73;15.03;;;;;;;;;;5116093;28;20392;-74
2021/01/06 00:15:19;;;;;;;37.80;13.77;;;;;;;;;;5112985;28;20428;-74
2021/01/06 00:17:45;;;;;;;36.13;14.93;;;;;;;;;;5115699;28;20511;-74
2021/01/06 00:20:11;;;;;;;31.60;14.00;;;;;;;;;;5113762;28;20454;-74
2021/01/06 00:22:37;;;;;;;32.90;13.40;;;;;;;;;;5113795;28;20791;-74
2021/01/06 00:25:05;;;;;;;31.03;13.40;;;;;;;;;;5113531;28;20431;-74
2021/01/06 00:27:31;;;;;;;42.90;16.87;;;;;;;;;;5115460;28;20454;-74
2021/01/06 00:29:57;;;;;;;37.00;14.30;;;;;;;;;;5106970;28;20428;-74
2021/01/06 00:32:23;;;;;;;36.03;15.87;;;;;;;;;;5083544;28;20982;-74
2021/01/06 00:34:49;;;;;;;30.80;14.20;;;;;;;;;;5103139;28;20431;-74
2021/01/06 00:37:15;;;;;;;38.80;16.37;;;;;;;;;;5115769;28;20842;-74
2021/01/06 00:39:41;;;;;;;47.53;15.67;;;;;;;;;;5113453;28;20480;-74
2021/01/06 00:42:07;;;;;;;50.33;16.20;;;;;;;;;;5115497;28;20490;-74
2021/01/06 00:44:33;;;;;;;42.93;14.83;;;;;;;;;;5113136;28;20427;-74
2021/01/06 00:46:59;;;;;;;35.50;13.33;;;;;;;;;;5114918;28;20478;-74
2021/01/06 00:49:25;;;;;;;41.47;13.40;;;;;;;;;;5113131;28;20427;-73
2021/01/06 00:51:51;;;;;;;34.67;15.60;;;;;;;;;;5114953;28;20837;-73
2021/01/06 00:54:17;;;;;;;47.00;15.00;;;;;;;;;;5112951;28;20723;-73
2021/01/06 00:56:43;;;;;;;32.67;12.83;;;;;;;;;;5114825;28;20422;-73
2021/01/06 00:59:10;;;;;;;40.37;15.80;;;;;;;;;;5112813;28;20424;-72
2021/01/06 01:01:36;;;;;;;31.30;15.00;;;;;;;;;;5114769;28;20481;-72
2021/01/06 01:04:02;;;;;;;38.23;15.20;;;;;;;;;;5112530;28;20402;-73
2021/01/06 01:06:30;;;;;;;41.93;15.37;;;;;;;;;;5114721;28;20481;-72
2021/01/06 01:08:56;;;;;;;40.13;14.83;;;;;;;;;;5112608;28;20402;-73
2021/01/06 01:11:23;;;;;;;38.30;15.03;;;;;;;;;;5112885;28;20434;-73
2021/01/06 01:13:52;;;;;;;35.53;14.80;;;;;;;;;;5113869;28;20754;-75
2021/01/06 01:16:19;;;;;;;45.13;14.83;;;;;;;;;;5114173;28;20907;-72
2021/01/06 01:18:45;;;;;;;44.47;14.70;;;;;;;;;;5114811;28;20868;-72
2021/01/06 01:21:11;;;;;;;36.00;15.17;;;;;;;;;;5112822;28;20502;-72
2021/01/06 01:23:37;;;;;;;39.47;14.73;;;;;;;;;;5114800;28;20764;-72
2021/01/06 01:26:03;;;;;;;40.63;16.33;;;;;;;;;;5112372;28;20434;-73
2021/01/06 01:28:29;;;;;;;43.63;15.77;;;;;;;;;;5112251;28;20459;-72
2021/01/06 01:30:56;;;;;;;37.67;16.60;;;;;;;;;;5112582;28;20430;-72
2021/01/06 01:33:25;;;;;;;37.80;14.97;;;;;;;;;;5093590;28;20427;-73
2021/01/06 01:35:51;;;;;;;42.60;14.60;;;;;;;;;;5108527;28;20412;-73
2021/01/06 01:38:22;;;;;;;44.87;16.60;;;;;;;;;;5114439;28;20398;-73
2021/01/06 01:40:48;;;;;;;48.40;15.30;;;;;;;;;;5112295;28;20591;-72
2021/01/06 01:43:14;;;;;;;41.17;14.77;;;;;;;;;;5114119;28;20408;-72
2021/01/06 01:45:46;;;;;;;53.03;17.97;;;;;;;;;;5112116;28;20446;-72
2021/01/06 01:48:25;;;;;;;49.10;18.70;;;;;;;;;;5113904;28;20451;-72
2021/01/06 01:50:52;;;;;;;37.37;14.57;;;;;;;;;;5112310;28;20429;-72
2021/01/06 01:53:20;;;;;;;34.73;13.77;;;;;;;;;;5113993;28;20399;-71
2021/01/06 01:55:46;;;;;;;35.67;15.77;;;;;;;;;;5110828;28;20485;-72
2021/01/06 01:58:20;;;;;;;34.60;15.50;;;;;;;;;;5113750;28;20509;-72
2021/01/06 02:00:46;;;;;;;56.27;20.50;;;;;;;;;;5097793;28;20436;-73
2021/01/06 02:03:18;;;;;;;31.63;15.23;;;;;;;;;;5093504;28;20864;-73
2021/01/06 02:05:48;;;;;;;47.60;18.00;;;;;;;;;;5092066;28;20438;-73
2021/01/06 02:08:20;;;;;;;38.10;14.97;;;;;;;;;;5093565;28;20451;-73
2021/01/06 02:10:58;;;;;;;47.47;15.43;;;;;;;;;;5105884;28;20454;-73
2021/01/06 02:13:32;;;;;;;43.37;15.73;;;;;;;;;;5114309;28;20387;-73
2021/01/06 02:16:04;;;;;;;42.33;17.70;;;;;;;;;;5098655;28;20967;-73
2021/01/06 02:18:30;;;;;;;40.97;16.87;;;;;;;;;;5093354;28;20381;-73
2021/01/06 02:21:05;;;;;;;33.13;15.37;;;;;;;;;;5102086;28;20427;-73
2021/01/06 02:23:32;;;;;;;39.77;15.37;;;;;;;;;;5091850;28;20424;-73
2021/01/06 02:25:58;;;;;;;38.53;14.17;;;;;;;;;;5101920;28;20484;-73
2021/01/06 02:28:24;;;;;;;41.73;15.60;;;;;;;;;;5112322;28;20494;-72
2021/01/06 02:30:50;;;;;;;30.10;14.27;;;;;;;;;;5111563;28;20423;-73
2021/01/06 02:33:16;;;;;;;32.60;13.97;;;;;;;;;;5104904;28;20436;-73
2021/01/06 02:35:43;;;;;;;42.50;15.00;;;;;;;;;;5098954;28;20435;-73
2021/01/06 02:38:09;;;;;;;33.43;14.97;;;;;;;;;;5115120;28;20962;-73
2021/01/06 02:40:36;;;;;;;40.30;15.53;;;;;;;;;;5115594;28;20438;-73
2021/01/06 02:43:02;;;;;;;41.30;15.70;;;;;;;;;;5117542;28;20422;-73
2021/01/06 02:45:28;;;;;;;52.17;18.37;;;;;;;;;;5111445;28;20427;-73
2021/01/06 02:47:54;;;;;;;42.23;15.50;;;;;;;;;;5096803;28;20871;-74
2021/01/06 02:50:22;;;;;;;37.40;17.07;;;;;;;;;;5097057;28;20850;-73
2021/01/06 02:53:08;;;;;;;41.00;15.33;;;;;;;;;;5115208;28;20923;-73
2021/01/06 02:55:36;;;;;;;47.63;15.80;;;;;;;;;;5115335;28;20430;-73
2021/01/06 02:58:10;;;;;;;46.10;16.13;;;;;;;;;;5117192;28;20769;-73
2021/01/06 03:00:36;;;;;;;37.67;17.43;;;;;;;;;;5115168;28;20729;-73
2021/01/06 03:03:07;;;;;;;39.40;16.50;;;;;;;;;;5097001;28;20469;-73
2021/01/06 03:05:40;;;;;;;52.37;18.40;;;;;;;;;;5095780;28;20396;-73
2021/01/06 03:08:08;;;;;;;45.60;16.43;;;;;;;;;;5076146;28;20452;-73
2021/01/06 03:10:34;;;;;;;44.73;16.60;;;;;;;;;;5074729;28;20410;-73
2021/01/06 03:13:00;;;;;;;35.10;14.57;;;;;;;;;;5116625;28;20411;-72
2021/01/06 03:15:27;;;;;;;50.20;16.43;;;;;;;;;;5116943;28;20486;-73
2021/01/06 03:17:54;;;;;;;46.00;16.80;;;;;;;;;;5114726;28;20468;-73
2021/01/06 03:20:23;;;;;;;45.43;16.83;;;;;;;;;;5114953;28;20462;-73
2021/01/06 03:22:51;;;;;;;36.73;14.80;;;;;;;;;;5114773;28;20502;-73
2021/01/06 03:25:18;;;;;;;35.50;14.30;;;;;;;;;;5116991;28;20443;-73
2021/01/06 03:27:45;;;;;;;35.93;16.00;;;;;;;;;;5096450;28;20459;-73
2021/01/06 03:30:15;;;;;;;50.30;17.30;;;;;;;;;;5095310;28;20416;-73
2021/01/06 03:33:00;;;;;;;31.73;12.77;;;;;;;;;;5112131;28;20419;-73
2021/01/06 03:35:32;;;;;;;43.47;15.87;;;;;;;;;;5105745;28;20440;-73
2021/01/06 03:38:16;;;;;;;34.37;15.20;;;;;;;;;;5113606;28;20555;-73
2021/01/06 03:40:46;;;;;;;43.90;14.50;;;;;;;;;;5114186;28;20410;-73
2021/01/06 03:43:13;;;;;;;49.10;16.93;;;;;;;;;;5095946;28;20392;-73
2021/01/06 03:45:42;;;;;;;26.83;13.70;;;;;;;;;;5095159;28;20757;-73
2021/01/06 03:48:18;;;;;;;36.93;14.87;;;;;;;;;;5115158;28;20596;-71
2021/01/06 03:50:45;;;;;;;37.27;13.87;;;;;;;;;;5114428;28;20785;-73
2021/01/06 03:53:17;;;;;;;48.33;17.50;;;;;;;;;;5113958;28;20774;-72
2021/01/06 03:55:51;;;;;;;31.97;14.57;;;;;;;;;;5114927;28;20491;-72
2021/01/06 03:58:20;;;;;;;41.47;15.63;;;;;;;;;;5116057;28;20459;-72
2021/01/06 04:00:55;;;;;;;36.30;16.67;;;;;;;;;;5115242;28;20416;-73
2021/01/06 04:03:27;;;;;;;33.13;16.10;;;;;;;;;;5095503;28;20408;-72
2021/01/06 04:05:53;;;;;;;35.57;14.30;;;;;;;;;;5094801;28;20466;-73
2021/01/06 04:08:22;;;;;;;46.83;14.70;;;;;;;;;;5095431;28;20447;-72
2021/01/06 04:10:52;;;;;;;40.17;15.30;;;;;;;;;;5095425;28;20760;-74
2021/01/06 04:13:18;;;;;;;37.37;16.40;;;;;;;;;;5115372;28;20478;-72
2021/01/06 04:15:44;;;;;;;42.00;16.80;;;;;;;;;;5116084;28;20475;-73
2021/01/06 04:18:10;;;;;;;43.07;15.03;;;;;;;;;;5113980;28;20434;-73
2021/01/06 04:20:38;;;;;;;47.17;15.80;;;;;;;;;;5116017;28;20460;-73
2021/01/06 04:23:08;;;;;;;35.90;14.67;;;;;;;;;;5095079;28;20457;-73
2021/01/06 04:25:34;;;;;;;28.23;13.57;;;;;;;;;;5095398;28;20759;-73
2021/01/06 04:28:04;;;;;;;39.90;14.60;;;;;;;;;;5111208;28;20454;-73
2021/01/06 04:30:31;;;;;;;41.73;14.40;;;;;;;;;;5115832;28;20407;-73
2021/01/06 04:32:58;;;;;;;31.00;14.40;;;;;;;;;;5113668;28;21000;-73
2021/01/06 04:35:25;;;;;;;36.03;13.50;;;;;;;;;;5115717;28;20427;-73
2021/01/06 04:37:51;;;;;;;39.50;14.87;;;;;;;;;;5091751;28;20827;-73
2021/01/06 04:40:20;;;;;;;44.63;18.03;;;;;;;;;;5094197;28;20432;-73
2021/01/06 04:42:46;;;;;;;31.97;15.60;;;;;;;;;;5108248;28;20892;-73
2021/01/06 04:45:33;;;;;;;29.07;14.27;;;;;;;;;;5115523;28;20419;-73
2021/01/06 04:48:31;;;;;;;37.00;15.10;;;;;;;;;;5113085;28;20515;-73
2021/01/06 04:51:14;;;;;;;40.27;15.50;;;;;;;;;;5081000;28;20502;-73
2021/01/06 04:53:43;;;;;;;42.30;14.80;;;;;;;;;;5074340;28;20417;-73
2021/01/06 04:56:13;;;;;;;38.73;14.63;;;;;;;;;;5074035;28;20424;-73
2021/01/06 04:58:57;;;;;;;46.83;17.57;;;;;;;;;;5094589;28;20415;-73
2021/01/06 05:01:45;;;;;;;33.87;14.37;;;;;;;;;;5092392;28;20465;-73
2021/01/06 05:04:26;;;;;;;32.87;15.07;;;;;;;;;;5094051;28;20396;-73
2021/01/06 05:06:56;;;;;;;33.77;15.33;;;;;;;;;;5098206;28;20541;-73
2021/01/06 05:09:26;;;;;;;33.13;14.60;;;;;;;;;;5115327;28;20483;-73
2021/01/06 05:12:01;;;;;;;31.77;13.77;;;;;;;;;;5107900;28;20424;-73
2021/01/06 05:14:36;;;;;;;49.60;16.20;;;;;;;;;;5094185;28;20491;-73
2021/01/06 05:17:02;;;;;;;28.87;14.70;;;;;;;;;;5088736;28;20444;-73
2021/01/06 05:19:32;;;;;;;43.90;16.70;;;;;;;;;;5073926;28;20406;-73
2021/01/06 05:21:59;;;;;;;34.33;12.07;;;;;;;;;;5084061;28;20502;-73
2021/01/06 05:24:34;;;;;;;45.40;15.20;;;;;;;;;;5113200;28;20412;-73
2021/01/06 05:27:15;;;;;;;40.57;16.37;;;;;;;;;;5107294;28;20474;-73
2021/01/06 05:29:42;;;;;;;32.57;14.17;;;;;;;;;;5094241;28;20409;-73
2021/01/06 05:32:29;;;;;;;37.20;15.07;;;;;;;;;;5092662;28;20920;-73
2021/01/06 05:35:00;;;;;;;32.27;14.33;;;;;;;;;;5100970;28;20460;-72
2021/01/06 05:37:26;;;;;;;31.10;15.10;;;;;;;;;;5103991;28;20452;-73
2021/01/06 05:39:54;;;;;;;33.67;16.00;;;;;;;;;;5091695;28;20469;-73
2021/01/06 05:42:25;;;;;;;51.00;16.57;;;;;;;;;;5093421;28;20427;-73
2021/01/06 05:44:52;;;;;;;34.57;15.70;;;;;;;;;;5099432;28;20408;-72
2021/01/06 05:47:24;;;;;;;34.23;13.97;;;;;;;;;;5094055;28;20473;-73
2021/01/06 05:49:52;;;;;;;34.13;13.97;;;;;;;;;;5095202;28;20391;-73
2021/01/06 05:52:19;;;;;;;42.93;14.30;;;;;;;;;;5092857;28;20435;-74
2021/01/06 05:54:52;;;;;;;37.23;15.83;;;;;;;;;;5094269;28;20407;-73
2021/01/06 05:57:35;;;;;;;42.23;15.53;;;;;;;;;;5093162;28;20450;-74
2021/01/06 06:00:13;;;;;;;43.10;13.67;;;;;;;;;;5094526;28;20397;-73
2021/01/06 06:02:58;;;;;;;33.63;13.50;;;;;;;;;;5093763;28;20463;-73
2021/01/06 06:05:27;;;;;;;32.67;12.83;;;;;;;;;;5094415;28;20380;-73
2021/01/06 06:08:08;;;;;;;37.97;15.37;;;;;;;;;;5091916;28;20498;-74
2021/01/06 06:11:07;;;;;;;33.97;15.27;;;;;;;;;;5093637;28;20411;-73
2021/01/06 06:13:51;;;;;;;39.33;16.30;;;;;;;;;;5048048;28;20433;-73
2021/01/06 06:16:47;;;;;;;36.53;13.83;;;;;;;;;;5073107;28;20417;-73
2021/01/06 06:19:31;;;;;;;44.70;15.70;;;;;;;;;;5019259;28;20825;-74
2021/01/06 06:22:06;;;;;;;35.10;13.90;;;;;;;;;;5074492;28;20444;-74
2021/01/06 06:25:01;;;;;;;31.80;13.53;;;;;;;;;;5093302;28;20464;-73
2021/01/06 06:27:34;;;;;;;40.13;16.53;;;;;;;;;;5083310;28;20479;-74
2021/01/06 06:30:12;;;;;;;35.97;15.07;;;;;;;;;;5093477;28;20718;-74
2021/01/06 06:32:39;;;;;;;33.07;14.83;;;;;;;;;;5092126;28;20428;-74
2021/01/06 06:35:07;;;;;;;39.77;14.70;;;;;;;;;;5093061;28;20448;-73
2021/01/06 06:37:33;;;;;;;41.10;17.37;;;;;;;;;;5092607;28;20824;-72
2021/01/06 06:39:59;;;;;;;41.13;15.13;;;;;;;;;;5090067;28;20439;-72
2021/01/06 06:42:25;;;;;;;38.40;16.13;;;;;;;;;;5092484;28;20788;-72
2021/01/06 06:44:54;;;;;;;31.23;15.20;;;;;;;;;;5092968;28;20404;-73
2021/01/06 06:47:39;;;;;;;38.17;16.57;;;;;;;;;;5092068;28;20455;-72
2021/01/06 06:50:14;;;;;;;34.90;14.90;;;;;;;;;;5092936;28;20399;-73
2021/01/06 06:52:42;;;;;;;41.43;17.53;;;;;;;;;;5091878;28;20420;-72
2021/01/06 06:55:11;;;;;;;42.30;14.27;;;;;;;;;;5093792;28;21003;-73
2021/01/06 06:57:44;;;;;;;42.77;16.63;;;;;;;;;;5092013;28;20440;-72
2021/01/06 07:00:20;;;;;;;27.77;14.80;;;;;;;;;;5093162;28;20409;-73
2021/01/06 07:02:50;;;;;;;31.50;13.80;;;;;;;;;;5092108;28;20453;-72
2021/01/06 07:05:21;;;;;;;35.87;13.27;;;;;;;;;;5093172;28;20484;-73
2021/01/06 07:07:49;;;;;;;33.90;13.47;;;;;;;;;;5092730;28;20928;-76
2021/01/06 07:10:18;;;;;;;40.30;14.57;;;;;;;;;;5091813;28;20412;-77
2021/01/06 07:12:44;;;;;;;48.50;15.67;;;;;;;;;;5091171;28;20432;-76
2021/01/06 07:15:21;;;;;;;34.70;14.17;;;;;;;;;;5091399;28;20783;-75
2021/01/06 07:17:47;;;;;;;44.70;17.27;;;;;;;;;;5091692;28;20459;-75
2021/01/06 07:20:16;;;;;;;51.00;20.40;;;;;;;;;;5091341;28;20496;-74
2021/01/06 07:22:44;;;;;;;52.03;19.83;;;;;;;;;;5091921;28;20184;-75
2021/01/06 07:25:19;;;;;;;40.67;15.97;;;;;;;;;;5095681;28;20409;-74
2021/01/06 07:27:47;;;;;;;44.50;16.60;;;;;;;;;;5095302;28;20814;-74
2021/01/06 07:30:26;;;;;;;40.73;15.33;;;;;;;;;;5095973;28;20408;-77
2021/01/06 07:32:53;;;;;;;36.43;14.30;;;;;;;;;;5094600;28;20412;-74
2021/01/06 07:35:23;;;;;;;37.80;15.10;;;;;;;;;;5085620;28;20389;-74
2021/01/06 07:38:09;;;;;;;37.50;14.63;;;;;;;;;;5086852;28;20538;-74
2021/01/06 07:40:38;;;;;;;31.90;14.07;;;;;;;;;;5092125;28;20455;-76
2021/01/06 07:43:07;;;;;;;39.20;14.73;;;;;;;;;;5092038;28;20503;-71
2021/01/06 07:45:39;;;;;;;41.57;15.70;;;;;;;;;;5093893;28;20416;-71
2021/01/06 07:48:31;;;;;;;41.47;14.57;;;;;;;;;;5093216;28;20508;-72
2021/01/06 07:51:03;;;;;;;44.30;14.90;;;;;;;;;;5069795;28;20424;-72
2021/01/06 07:53:38;;;;;;;42.80;14.10;;;;;;;;;;5092748;28;20485;-71
2021/01/06 07:56:06;;;;;;;52.67;15.40;;;;;;;;;;5095604;28;20428;-72
2021/01/06 07:58:35;;;;;;;53.80;15.50;;;;;;;;;;5094428;28;20439;-72
2021/01/06 08:01:06;;;;;;;36.00;12.60;;;;;;;;;;5093403;28;20527;-72
2021/01/06 08:03:40;;;;;;;41.13;14.80;;;;;;;;;;5095184;28;20785;-72
2021/01/06 08:06:06;;;;;;;35.40;14.43;;;;;;;;;;5097363;28;20427;-72
2021/01/06 08:08:59;;;;;;;40.50;14.83;;;;;;;;;;5094433;28;20459;-72
2021/01/06 08:11:26;;;;;;;34.77;14.07;;;;;;;;;;5089868;28;20863;-72
2021/01/06 08:13:52;;;;;;;31.03;14.37;;;;;;;;;;5094045;28;20816;-72
2021/01/06 08:16:22;;;;;;;36.40;16.60;;;;;;;;;;5093819;28;20447;-72
2021/01/06 08:19:06;;;;;;;44.33;19.43;;;;;;;;;;5093212;28;20422;-72
2021/01/06 08:21:36;;;;;;;30.83;14.20;;;;;;;;;;5111695;28;20420;-72
2021/01/06 08:24:31;;;;;;;39.57;14.17;;;;;;;;;;5092570;28;20424;-72
2021/01/06 08:26:58;;;;;;;32.40;14.10;;;;;;;;;;5040560;28;20485;-72
2021/01/06 08:29:26;;;;;;;45.13;15.83;;;;;;;;;;5093917;28;20450;-72
2021/01/06 08:32:12;;;;;;;35.50;15.00;;;;;;;;;;5104836;28;20419;-75
2021/01/06 08:34:42;;;;;;;47.92;18.95;;;;;;;;;;5084527;28;20424;-71
2021/01/06 08:37:10;;;;;;;38.00;18.03;;;;;;;;;;5094174;28;20624;-75
2021/01/06 08:39:38;;;;;;;39.27;16.87;;;;;;;;;;5093773;28;20421;-73
2021/01/06 08:42:13;;;;;;;46.43;15.87;;;;;;;;;;5092938;28;20901;-73
2021/01/06 08:44:45;;;;;;;34.17;12.73;;;;;;;;;;5093463;28;20480;-73
2021/01/06 08:47:13;;;;;;;31.77;13.60;;;;;;;;;;5094669;28;20580;-71
2021/01/06 08:49:48;;;;;;;31.63;13.87;;;;;;;;;;5093334;28;20509;-70
2021/01/06 08:52:17;;;;;;;31.60;13.63;;;;;;;;;;5093590;28;20423;-70
2021/01/06 08:55:02;;;;;;;29.43;13.73;;;;;;;;;;5093648;28;20419;-70
2021/01/06 08:57:30;;;;;;;33.47;14.03;;;;;;;;;;5091985;28;20459;-72
2021/01/06 08:59:56;;;;;;;37.73;14.50;;;;;;;;;;5092827;28;20909;-70
2021/01/06 09:02:42;;;;;;;32.90;14.20;;;;;;;;;;5094764;28;20399;-72
2021/01/06 09:05:28;;;;;;;34.87;13.87;;;;;;;;;;5079656;28;20486;-68
2021/01/06 09:07:54;;;;;;;31.67;15.00;;;;;;;;;;5094129;28;20879;-70
2021/01/06 09:10:36;;;;;;;37.83;15.40;;;;;;;;;;5093400;28;20433;-70
2021/01/06 09:13:09;;;;;;;40.83;14.47;;;;;;;;;;5094595;28;20806;-71
2021/01/06 09:15:46;;;;;;;36.83;13.97;;;;;;;;;;5094018;28;20492;-72
2021/01/06 09:18:19;;;;;;;31.50;14.80;;;;;;;;;;5074176;28;20463;-75
2021/01/06 09:20:57;;;;;;;29.80;12.70;;;;;;;;;;5074719;28;20945;-74
2021/01/06 09:23:24;;;;;;;34.20;11.83;;;;;;;;;;5075386;28;20397;-72
2021/01/06 09:25:50;;;;;;;28.07;14.00;;;;;;;;;;5094457;28;20441;-74
2021/01/06 09:28:17;;;;;;;33.53;15.77;;;;;;;;;;5092371;28;20428;-71
2021/01/06 09:30:44;;;;;;;33.90;12.30;;;;;;;;;;5094208;28;20177;-69
2021/01/06 09:33:30;;;;;;;24.70;11.27;;;;;;;;;;5094574;28;20757;-70
2021/01/06 09:35:56;;;;;;;26.93;12.83;;;;;;;;;;5093953;28;20456;-72
2021/01/06 09:38:22;;;;;;;31.83;12.60;;;;;;;;;;5093176;28;20411;-75
2021/01/06 09:40:49;;;;;;;27.03;12.53;;;;;;;;;;5087719;28;20428;-73
2021/01/06 09:43:36;;;;;;;32.57;11.50;;;;;;;;;;5089611;28;20775;-74
2021/01/06 09:46:03;;;;;;;30.23;10.80;;;;;;;;;;5093653;28;20424;-77
2021/01/06 09:48:30;;;;;;;23.23;10.90;;;;;;;;;;5091608;28;20539;-76
2021/01/06 09:50:57;;;;;;;30.47;11.67;;;;;;;;;;5092970;28;20502;-77
2021/01/06 09:53:26;;;;;;;28.63;11.80;;;;;;;;;;5096790;28;20495;-78
2021/01/06 09:55:53;;;;;;;28.40;13.15;;;;;;;;;;5095086;28;20427;-79
2021/01/06 09:58:25;;;;;;;28.50;12.03;;;;;;;;;;5098417;28;20581;-79
2021/01/06 10:01:01;;;;;;;29.10;10.43;;;;;;;;;;5080273;28;20908;-79
2021/01/06 10:03:28;;;;;;;25.73;11.27;;;;;;;;;;5097127;28;20923;-74
2021/01/06 10:05:57;;;;;;;38.50;13.77;;;;;;;;;;5094332;28;20797;-74
2021/01/06 10:08:23;;;;;;;26.25;12.68;;;;;;;;;;5092834;28;20428;-73
2021/01/06 10:10:50;;;;;;;31.60;11.90;;;;;;;;;;5092037;28;20179;-72
2021/01/06 10:13:16;;;;;;;28.65;14.13;;;;;;;;;;5095313;28;20420;-77
2021/01/06 10:15:44;;;;;;;28.55;13.02;;;;;;;;;;5092733;28;20801;-75
2021/01/06 10:18:32;;;;;;;23.30;12.17;;;;;;;;;;5091334;28;20238;-71
2021/01/06 10:21:16;;;;;;;26.13;10.80;;;;;;;;;;5091966;28;20424;-76
2021/01/06 10:23:42;;;;;;;32.85;14.55;;;;;;;;;;5091696;28;20423;-75
2021/01/06 10:26:20;;;;;;;26.53;11.03;;;;;;;;;;5093395;28;20244;-72
2021/01/06 10:28:53;;;;;;;34.03;13.40;;;;;;;;;;5093878;28;20456;-73
2021/01/06 10:31:21;;;;;;;27.90;11.43;;;;;;;;;;5093869;28;20452;-74
2021/01/06 10:34:01;;;;;;;30.90;14.20;;;;;;;;;;5092336;28;20947;-73
2021/01/06 10:36:33;;;;;;;27.43;11.80;;;;;;;;;;5092137;28;20464;-72
2021/01/06 10:39:00;;;;;;;30.93;12.33;;;;;;;;;;5093636;28;20747;-71
2021/01/06 10:41:28;;;;;;;28.83;13.77;;;;;;;;;;5092468;28;20480;-71
2021/01/06 10:44:00;;;;;;;26.93;10.63;;;;;;;;;;5093247;28;20408;-72
2021/01/06 10:46:33;;;;;;;34.17;15.82;;;;;;;;;;5091076;28;20424;-72
2021/01/06 10:49:00;;;;;;;30.73;13.40;;;;;;;;;;5095035;28;20265;-71
2021/01/06 10:51:44;;;;;;;25.98;12.57;;;;;;;;;;5090783;28;20448;-70
2021/01/06 10:54:10;;;;;;;26.17;12.20;;;;;;;;;;5109753;28;20190;-75
2021/01/06 10:56:36;;;;;;;30.02;13.73;;;;;;;;;;5088312;28;20418;-70
2021/01/06 10:59:06;;;;;;;27.57;13.10;;;;;;;;;;5085796;28;20164;-70
2021/01/06 11:01:52;;;;;;;19.53;12.20;;;;;;;;;;5081796;28;20419;-70
2021/01/06 11:04:34;;;;;;;22.07;10.57;;;;;;;;;;5088852;28;20419;-73
2021/01/06 11:07:21;;;;;;;35.55;15.48;;;;;;;;;;5102434;28;20426;-70
2021/01/06 11:09:53;;;;;;;27.77;12.57;;;;;;;;;;5082117;28;20181;-66
2021/01/06 11:12:22;;;;;;;32.10;11.63;;;;;;;;;;5106189;28;20763;-68
2021/01/06 11:14:48;;;;;;;27.75;11.95;;;;;;;;;;5098700;28;20388;-70
2021/01/06 11:17:17;;;;;;;26.58;12.85;;;;;;;;;;5101428;28;20515;-69
2021/01/06 11:19:43;;;;;;;30.60;13.43;;;;;;;;;;5096457;28;20435;-69
2021/01/06 11:22:18;;;;;;;28.67;13.15;;;;;;;;;;5093527;28;20420;-69
2021/01/06 11:24:50;;;;;;;26.30;11.10;;;;;;;;;;5096741;28;20170;-75
2021/01/06 11:27:35;;;;;;;23.87;11.57;;;;;;;;;;5104530;28;21092;-70
2021/01/06 11:30:11;;;;;;;34.00;14.33;;;;;;;;;;5115787;28;20418;-70
2021/01/06 11:32:38;;;;;;;23.90;11.87;;;;;;;;;;5095383;28;20423;-70
2021/01/06 11:35:10;;;;;;;23.97;11.77;;;;;;;;;;5094537;28;20408;-71
2021/01/06 11:37:38;;;;;;;24.37;11.90;;;;;;;;;;5104241;28;20466;-73
2021/01/06 11:40:33;;;;;;;33.72;14.30;;;;;;;;;;5091563;28;20404;-68
2021/01/06 11:43:02;;;;;;;27.70;13.33;;;;;;;;;;5093377;28;20666;-71
2021/01/06 11:45:32;;;;;;;34.10;14.50;;;;;;;;;;5114403;28;20536;-68
2021/01/06 11:48:05;;;;;;;33.80;14.40;;;;;;;;;;5101217;28;20459;-68
2021/01/06 11:50:41;;;;;;;35.92;13.77;;;;;;;;;;5076228;28;20451;-70
2021/01/06 11:53:26;;;;;;;19.63;9.43;;;;;;;;;;5094768;28;20182;-70
2021/01/06 11:56:04;;;;;;;20.13;9.77;;;;;;;;;;5100026;28;20419;-71
2021/01/06 11:58:49;;;;;;;27.13;12.47;;;;;;;;;;5104658;28;20432;-73
2021/01/06 12:01:33;;;;;;;25.40;10.37;;;;;;;;;;5094758;28;20408;-71
2021/01/06 12:03:59;;;;;;;23.10;10.63;;;;;;;;;;5078614;28;20416;-72
2021/01/06 12:06:57;;;;;;;18.97;9.57;;;;;;;;;;5095218;28;20409;-73
2021/01/06 12:09:36;;;;;;;28.27;10.40;;;;;;;;;;5064853;28;20424;-72
2021/01/06 12:12:22;;;;;;;23.93;11.27;;;;;;;;;;5094022;28;20511;-73
2021/01/06 12:15:06;;;;;;;20.27;9.70;;;;;;;;;;5095277;28;20749;-73
2021/01/06 12:17:35;;;;;;;28.47;11.70;;;;;;;;;;5101854;28;20534;-73
2021/01/06 12:20:05;;;;;;;25.60;10.52;;;;;;;;;;5094622;28;20433;-71
2021/01/06 12:22:31;;;;;;;23.88;11.75;;;;;;;;;;5097220;28;20428;-70
2021/01/06 12:25:03;;;;;;;25.13;11.37;;;;;;;;;;5094729;28;20174;-72
2021/01/06 12:27:34;;;;;;;24.57;10.43;;;;;;;;;;5102640;28;20577;-71
2021/01/06 12:30:12;;;;;;;18.57;10.60;;;;;;;;;;5106130;28;20838;-71
2021/01/06 12:32:38;;;;;;;18.77;9.77;;;;;;;;;;5093837;28;20439;-71
2021/01/06 12:35:12;;;;;;;25.00;11.30;;;;;;;;;;5093759;28;20416;-71
2021/01/06 12:37:38;;;;;;;20.03;9.00;;;;;;;;;;5103650;28;20495;-71
2021/01/06 12:40:14;;;;;;;20.40;10.93;;;;;;;;;;5115358;28;20478;-71
2021/01/06 12:42:52;;;;;;;20.23;9.00;;;;;;;;;;5113627;28;20422;-71
2021/01/06 12:45:38;;;;;;;19.80;9.93;;;;;;;;;;5115499;28;20470;-71
2021/01/06 12:48:21;;;;;;;17.70;10.37;;;;;;;;;;5112840;28;20499;-71
2021/01/06 12:51:04;;;;;;;20.37;9.70;;;;;;;;;;5092660;28;20425;-71
2021/01/06 12:53:33;;;;;;;20.53;10.50;;;;;;;;;;5110776;28;20419;-71
2021/01/06 12:56:09;;;;;;;17.87;9.47;;;;;;;;;;5115273;28;20753;-71
2021/01/06 12:58:35;;;;;;;16.97;8.90;;;;;;;;;;5113008;28;20464;-71
2021/01/06 13:01:09;;;;;;;17.17;9.80;;;;;;;;;;5115180;28;20399;-71
2021/01/06 13:03:39;;;;;;;21.00;9.90;;;;;;;;;;5111205;28;20823;-71
2021/01/06 13:06:11;;;;;;;20.40;9.87;;;;;;;;;;5114734;28;20415;-71
2021/01/06 13:08:49;;;;;;;20.30;10.33;;;;;;;;;;5112646;28;20459;-72
2021/01/06 13:11:18;;;;;;;20.27;9.47;;;;;;;;;;5114906;28;20483;-71
2021/01/06 13:13:45;;;;;;;23.37;11.00;;;;;;;;;;5095205;28;20810;-72
2021/01/06 13:16:17;;;;;;;20.63;10.37;;;;;;;;;;5094196;28;20499;-72
2021/01/06 13:18:46;;;;;;;19.10;10.33;;;;;;;;;;5091323;28;20440;-72
2021/01/06 13:21:32;;;;;;;18.13;10.90;;;;;;;;;;5094247;28;20408;-72
2021/01/06 13:23:58;;;;;;;22.50;11.17;;;;;;;;;;5112452;28;20434;-71
2021/01/06 13:26:43;;;;;;;21.63;10.00;;;;;;;;;;5113094;28;20994;-72
2021/01/06 13:29:12;;;;;;;21.17;9.47;;;;;;;;;;5073790;28;20420;-72
2021/01/06 13:31:42;;;;;;;22.77;10.80;;;;;;;;;;5073616;28;20492;-73
2021/01/06 13:34:17;;;;;;;22.77;10.83;;;;;;;;;;5114275;28;20762;-72
2021/01/06 13:37:04;;;;;;;21.63;9.50;;;;;;;;;;5112896;28;20439;-72
2021/01/06 13:39:48;;;;;;;19.60;11.47;;;;;;;;;;5092404;28;20775;-72
2021/01/06 13:42:28;;;;;;;24.47;10.27;;;;;;;;;;5097539;28;20516;-72
2021/01/06 13:45:01;;;;;;;21.90;10.33;;;;;;;;;;5114554;28;20395;-71
2021/01/06 13:47:29;;;;;;;30.50;10.80;;;;;;;;;;5113435;28;20840;-71
2021/01/06 13:50:17;;;;;;;21.47;12.17;;;;;;;;;;5114391;28;20407;-71
2021/01/06 13:52:50;;;;;;;21.30;11.30;;;;;;;;;;5088468;28;20523;-71
2021/01/06 13:55:35;;;;;;;26.10;11.07;;;;;;;;;;5073585;28;20425;-71
2021/01/06 13:58:24;;;;;;;22.30;12.50;;;;;;;;;;5093425;28;20794;-72
2021/01/06 14:00:50;;;;;;;22.60;11.00;;;;;;;;;;5085021;28;20468;-71
2021/01/06 14:03:29;;;;;;;25.37;11.10;;;;;;;;;;5102411;28;20419;-71
2021/01/06 14:06:03;;;;;;;27.37;13.23;;;;;;;;;;5093692;28;20392;-72
2021/01/06 14:08:53;;;;;;;24.73;9.73;;;;;;;;;;5092492;28;20451;-71
2021/01/06 14:11:42;;;;;;;26.37;11.33;;;;;;;;;;5086957;28;20439;-72
2021/01/06 14:14:16;;;;;;;35.53;11.67;;;;;;;;;;5064024;28;20501;-72
2021/01/06 14:16:47;;;;;;;21.57;9.80;;;;;;;;;;5091451;28;20421;-72
2021/01/06 14:19:32;;;;;;;19.43;10.80;;;;;;;;;;5087393;28;20431;-72
2021/01/06 14:22:07;;;;;;;24.60;10.67;;;;;;;;;;5093643;28;20422;-72
2021/01/06 14:24:34;;;;;;;20.50;9.80;;;;;;;;;;5109469;28;20471;-72
2021/01/06 14:27:07;;;;;;;18.90;10.40;;;;;;;;;;5113854;28;20800;-72
2021/01/06 14:29:48;;;;;;;22.97;10.90;;;;;;;;;;5109955;28;20430;-72
2021/01/06 14:32:18;;;;;;;26.40;11.40;;;;;;;;;;5113898;28;20407;-71
2021/01/06 14:35:05;;;;;;;18.40;10.00;;;;;;;;;;5114558;28;20754;-72
2021/01/06 14:37:32;;;;;;;24.00;9.60;;;;;;;;;;5106920;28;20799;-71
2021/01/06 14:40:17;;;;;;;24.53;11.67;;;;;;;;;;5116333;28;20502;-71
2021/01/06 14:42:50;;;;;;;17.97;9.00;;;;;;;;;;5115723;28;20491;-72
2021/01/06 14:45:36;;;;;;;18.53;12.07;;;;;;;;;;5117914;28;20460;-71
2021/01/06 14:48:14;;;;;;;26.43;11.43;;;;;;;;;;5101254;28;20467;-71